Time;durP1;ratioP1;P1;durP2;ratioP2;P2;SDS_P1;SDS_P2;PMS_P1;PMS_P2;Temp;Humidity;BMP_temperature;BMP_pressure;BME280_temperature;BME280_humidity;BME280_pressure;Samples;Min_cycle;Max_cycle;Signal;HPM_P1;HPM_P2
2023/06/29 00:00:21;;;;;;;8.02;7.43;;;;;;;15.71;81.73;100409.84;6085616;23;19910;-83
2023/06/29 00:10:54;;;;;;;8.40;7.60;;;;;;;19.93;81.87;101116.38;5939788;18;20018;-69
2023/06/29 00:13:22;;;;;;;7.50;6.80;;;;;;;19.09;82.06;100970.75;6076011;23;20035;-70
2023/06/29 00:15:49;;;;;;;7.53;7.00;;;;;;;19.84;83.42;101112.66;6079398;23;20511;-71
2023/06/29 00:18:18;;;;;;;8.20;7.38;;;;;;;19.85;83.81;101110.84;6082079;23;20022;-70
2023/06/29 00:20:45;;;;;;;7.95;7.25;;;;;;;19.84;83.43;101111.81;6081382;23;20484;-71
2023/06/29 00:23:11;;;;;;;8.70;7.90;;;;;;;19.68;83.63;101099.75;6079854;23;20098;-71
2023/06/29 00:25:39;;;;;;;7.70;7.00;;;;;;;19.76;84.76;101112.47;6080665;23;20022;-70
2023/06/29 00:28:05;;;;;;;7.88;7.18;;;;;;;19.49;84.77;101073.84;6081479;23;20372;-71
2023/06/29 00:30:31;;;;;;;7.38;6.78;;;;;;;19.38;85.08;101062.41;6080140;23;20385;-72
2023/06/29 00:32:58;;;;;;;8.00;7.30;;;;;;;19.44;86.18;101078.69;6053467;23;20033;-70
2023/06/29 00:35:24;;;;;;;7.40;6.80;;;;;;;19.65;86.42;101117.84;6081236;23;20089;-70
2023/06/29 00:37:51;;;;;;;7.65;7.05;;;;;;;19.25;86.73;101052.78;6054645;23;20038;-70
2023/06/29 00:40:17;;;;;;;7.47;6.88;;;;;;;19.21;86.94;101046.03;6075923;23;20778;-70
2023/06/29 00:42:43;;;;;;;7.90;7.10;;;;;;;19.26;87.43;101042.97;6053437;23;20056;-70
2023/06/29 00:45:10;;;;;;;7.85;7.18;;;;;;;19.55;86.99;101096.47;6079241;23;20093;-70
2023/06/29 00:47:37;;;;;;;11.43;7.07;;;;;;;19.66;86.67;101112.34;6054186;23;20150;-69
2023/06/29 00:50:04;;;;;;;8.88;7.57;;;;;;;19.66;85.84;101111.53;6084023;23;20025;-70
2023/06/29 00:52:31;;;;;;;7.57;6.97;;;;;;;19.51;85.69;101081.72;6078712;23;20092;-70
2023/06/29 00:54:58;;;;;;;13.90;7.30;;;;;;;19.32;86.01;101063.75;6074918;23;20531;-70
2023/06/29 00:57:25;;;;;;;7.32;6.68;;;;;;;19.54;86.29;101092.09;6079020;23;20018;-70
2023/06/29 00:59:52;;;;;;;11.50;7.25;;;;;;;19.15;86.61;101041.22;6080910;23;20372;-70
2023/06/29 01:02:18;;;;;;;7.65;6.95;;;;;;;19.56;86.49;101102.63;6077750;23;20519;-70
2023/06/29 01:04:48;;;;;;;7.78;7.07;;;;;;;19.37;86.67;101077.53;6074215;23;20015;-70
2023/06/29 01:07:17;;;;;;;10.00;7.57;;;;;;;19.53;87.09;101106.38;6044873;23;20825;-70
2023/06/29 01:09:46;;;;;;;7.97;7.22;;;;;;;19.52;87.72;101110.00;6081619;23;20083;-70
2023/06/29 01:12:13;;;;;;;7.47;6.97;;;;;;;19.53;88.10;101109.88;6078314;23;20110;-70
2023/06/29 01:14:42;;;;;;;7.88;7.38;;;;;;;19.53;88.03;101109.88;6081742;23;20093;-70
2023/06/29 01:17:13;;;;;;;9.65;7.82;;;;;;;19.41;87.70;101092.28;6051753;23;20030;-70
2023/06/29 01:19:43;;;;;;;7.53;6.85;;;;;;;19.32;87.11;101063.75;6080043;23;20803;-70
2023/06/29 01:22:19;;;;;;;8.00;7.30;;;;;;;19.52;86.90;101094.03;6074583;23;20029;-69
2023/06/29 01:24:46;;;;;;;7.30;6.80;;;;;;;19.20;87.21;101057.63;6104934;23;20022;-70
2023/06/29 01:27:14;;;;;;;8.57;7.88;;;;;;;19.42;88.02;101112.59;6103319;23;20741;-70
2023/06/29 01:29:41;;;;;;;8.20;7.50;;;;;;;19.40;88.12;101105.72;6080388;23;20014;-70
2023/06/29 01:32:08;;;;;;;8.68;7.82;;;;;;;19.21;88.02;101077.13;6049004;23;20052;-70
2023/06/29 01:34:36;;;;;;;8.15;7.55;;;;;;;19.41;88.14;101107.41;6075071;23;20044;-69
2023/06/29 01:37:09;;;;;;;10.55;7.93;;;;;;;19.37;87.87;101098.00;6075767;23;20014;-69
2023/06/29 01:39:43;;;;;;;7.55;6.85;;;;;;;19.32;88.21;101101.88;6082323;23;20416;-70
2023/06/29 01:42:12;;;;;;;7.43;6.88;;;;;;;19.34;88.70;101109.72;6048366;23;20026;-70
2023/06/29 01:44:39;;;;;;;10.50;7.85;;;;;;;19.34;88.01;101109.72;6071544;23;20050;-70
2023/06/29 01:47:09;;;;;;;7.70;7.13;;;;;;;19.29;87.35;101083.50;6079583;23;20690;-70
2023/06/29 01:49:36;;;;;;;7.50;6.90;;;;;;;19.39;87.30;101094.22;6077489;23;20033;-70
2023/06/29 01:52:04;;;;;;;7.15;6.65;;;;;;;19.41;87.42;101094.09;6045553;23;20013;-70
2023/06/29 01:54:31;;;;;;;9.20;7.78;;;;;;;19.19;87.10;101063.94;6103527;23;20026;-71
2023/06/29 01:56:58;;;;;;;8.57;7.43;;;;;;;19.32;87.71;101087.72;6075822;23;20029;-70
2023/06/29 01:59:24;;;;;;;9.40;6.80;;;;;;;19.12;87.29;101046.78;6081425;23;20463;-71
2023/06/29 02:01:51;;;;;;;8.25;7.32;;;;;;;19.24;87.32;101072.38;6079386;23;20452;-70
2023/06/29 02:04:17;;;;;;;7.90;7.10;;;;;;;19.40;86.83;101087.06;6102480;23;20035;-70
2023/06/29 02:06:44;;;;;;;7.32;6.82;;;;;;;19.17;86.93;101057.06;6076749;23;20026;-70
2023/06/29 02:09:10;;;;;;;8.18;7.57;;;;;;;19.32;87.58;101091.25;6078285;23;20393;-70
2023/06/29 02:11:37;;;;;;;7.30;6.80;;;;;;;19.28;87.83;101086.28;6078395;23;20037;-70
2023/06/29 02:14:03;;;;;;;7.57;7.07;;;;;;;19.19;88.53;101082.56;6053078;23;20038;-70
2023/06/29 02:16:30;;;;;;;7.90;7.18;;;;;;;19.10;88.60;101078.88;6082329;23;20532;-70
2023/06/29 02:18:56;;;;;;;9.57;7.05;;;;;;;19.09;89.05;101076.31;6082265;23;20049;-70
2023/06/29 02:21:22;;;;;;;7.50;6.80;;;;;;;19.13;89.02;101081.25;6080829;23;20105;-70
2023/06/29 02:23:49;;;;;;;8.23;7.43;;;;;;;19.11;89.49;101125.75;6107226;23;20649;-70
2023/06/29 02:26:16;;;;;;;7.85;7.22;;;;;;;18.81;89.88;101043.16;6077833;23;20079;-70
2023/06/29 02:28:42;;;;;;;7.95;7.22;;;;;;;19.05;89.94;101075.72;6086591;23;20034;-70
2023/06/29 02:31:09;;;;;;;8.18;7.40;;;;;;;18.97;91.16;101086.16;6078944;23;20041;-71
2023/06/29 02:33:35;;;;;;;8.30;7.50;;;;;;;18.93;91.84;101082.06;6083417;23;20026;-70
2023/06/29 02:36:01;;;;;;;7.72;7.10;;;;;;;18.52;92.05;101017.94;6083756;23;20477;-70
2023/06/29 02:38:28;;;;;;;8.18;7.35;;;;;;;18.70;92.43;101051.97;6080265;23;20598;-71
2023/06/29 02:40:54;;;;;;;7.70;7.10;;;;;;;18.66;92.58;101050.50;6077388;23;20024;-70
2023/06/29 02:43:21;;;;;;;7.93;7.30;;;;;;;18.91;93.20;101087.47;6080515;23;20026;-70
2023/06/29 02:45:47;;;;;;;7.78;7.00;;;;;;;18.94;93.25;101091.69;6083185;23;20014;-70
2023/06/29 02:48:14;;;;;;;7.38;6.88;;;;;;;18.63;92.98;101041.00;6055179;23;20535;-70
2023/06/29 02:50:41;;;;;;;9.57;7.25;;;;;;;18.91;92.77;101084.00;6082879;23;20097;-70
2023/06/29 02:53:07;;;;;;;8.10;7.40;;;;;;;19.01;92.35;101086.75;6052576;23;20033;-71
2023/06/29 02:55:33;;;;;;;7.80;7.10;;;;;;;18.99;92.49;101084.22;6081612;23;20129;-70
2023/06/29 02:58:00;;;;;;;8.23;6.43;;;;;;;18.30;93.02;100978.97;6055709;23;20026;-71
2023/06/29 03:00:26;;;;;;;8.73;6.53;;;;;;;18.98;93.09;101081.66;6083150;23;20093;-70
2023/06/29 03:02:53;;;;;;;8.30;7.50;;;;;;;18.51;92.71;101008.25;6054140;23;20691;-70
2023/06/29 03:05:19;;;;;;;10.55;6.68;;;;;;;18.65;92.77;101024.91;6084441;23;20029;-70
2023/06/29 03:07:46;;;;;;;8.13;7.25;;;;;;;18.91;93.39;101079.50;6086200;23;20021;-72
2023/06/29 03:10:12;;;;;;;8.55;7.55;;;;;;;18.59;93.75;101044.84;6086972;23;20022;-71
2023/06/29 03:12:39;;;;;;;7.82;7.13;;;;;;;18.81;94.84;101080.38;6080499;23;20980;-71
2023/06/29 03:15:05;;;;;;;7.53;7.00;;;;;;;18.27;95.78;101004.94;6082976;23;20026;-70
2023/06/29 03:17:32;;;;;;;11.20;7.30;;;;;;;18.80;96.32;101084.00;6080897;23;20018;-70
2023/06/29 03:19:58;;;;;;;8.07;7.47;;;;;;;18.79;96.47;101083.16;6054331;23;20026;-70
2023/06/29 03:22:26;;;;;;;7.60;7.00;;;;;;;18.80;96.75;101084.00;6080434;23;20033;-70
2023/06/29 03:24:53;;;;;;;8.63;7.78;;;;;;;18.44;96.74;101038.09;6081196;23;20019;-70
2023/06/29 03:27:19;;;;;;;8.05;7.28;;;;;;;18.68;97.16;101078.69;6077713;23;20381;-70
2023/06/29 03:29:49;;;;;;;7.55;7.00;;;;;;;18.45;97.41;101059.25;6082801;23;20528;-70
2023/06/29 03:32:16;;;;;;;9.98;9.07;;;;;;;18.57;97.90;101069.88;6101592;23;20140;-70
2023/06/29 03:34:42;;;;;;;7.97;7.32;;;;;;;18.24;97.47;101021.97;6083690;23;20013;-71
2023/06/29 03:37:08;;;;;;;6.93;6.53;;;;;;;18.51;97.40;101055.25;6083443;23;20020;-70
2023/06/29 03:39:35;;;;;;;9.32;7.05;;;;;;;18.73;97.62;101084.47;6077952;23;20630;-71
2023/06/29 03:42:02;;;;;;;7.68;7.07;;;;;;;18.65;98.08;101065.63;6081377;23;20022;-70
2023/06/29 03:44:29;;;;;;;10.57;7.40;;;;;;;18.71;98.56;101081.09;6080949;23;20069;-70
2023/06/29 03:46:55;;;;;;;7.00;6.50;;;;;;;18.53;99.18;101053.34;6053550;23;20016;-70
2023/06/29 03:49:22;;;;;;;9.10;7.50;;;;;;;17.85;99.36;100939.16;6084910;23;20018;-70
2023/06/29 03:51:48;;;;;;;6.90;6.40;;;;;;;17.52;99.25;100895.69;6055925;23;20060;-70
2023/06/29 03:54:14;;;;;;;8.18;7.47;;;;;;;18.70;98.82;101074.09;6084430;23;20066;-70
2023/06/29 03:56:41;;;;;;;10.45;7.65;;;;;;;18.70;98.48;101071.44;6082625;23;20029;-70
2023/06/29 03:59:07;;;;;;;8.50;7.40;;;;;;;18.24;99.84;101013.13;6082023;23;20014;-70
2023/06/29 04:01:34;;;;;;;10.60;8.32;;;;;;;17.62;100.00;100910.88;6103243;23;20026;-70
2023/06/29 04:04:00;;;;;;;7.72;7.13;;;;;;;18.21;100.00;101016.88;6084557;23;20018;-70
2023/06/29 04:06:29;;;;;;;8.40;7.70;;;;;;;18.54;100.00;101078.94;6083155;23;20033;-70
2023/06/29 04:08:55;;;;;;;7.53;6.82;;;;;;;18.54;100.00;101070.94;6085741;23;20014;-70
2023/06/29 04:11:22;;;;;;;7.82;7.18;;;;;;;18.21;100.00;101046.09;6082282;23;20030;-71
2023/06/29 04:13:48;;;;;;;8.25;7.47;;;;;;;18.58;100.00;101077.72;6080699;23;20018;-71
2023/06/29 04:16:15;;;;;;;7.72;7.03;;;;;;;18.60;100.00;101066.97;6080015;23;20417;-71
2023/06/29 04:18:41;;;;;;;7.70;7.15;;;;;;;17.71;100.00;100911.00;6082768;23;20076;-71
2023/06/29 04:21:07;;;;;;;8.60;7.70;;;;;;;17.92;100.00;100956.31;6084415;23;20018;-70
2023/06/29 04:23:34;;;;;;;8.13;7.43;;;;;;;18.63;100.00;101056.94;6081378;23;20026;-71
2023/06/29 04:26:03;;;;;;;9.90;6.82;;;;;;;18.67;100.00;101060.19;6083517;23;20034;-70
2023/06/29 04:28:34;;;;;;;7.28;6.78;;;;;;;18.57;100.00;101057.44;6079622;23;20070;-71
2023/06/29 04:31:00;;;;;;;7.78;6.82;;;;;;;18.61;100.00;101061.53;6104398;23;20068;-70
2023/06/29 04:33:26;;;;;;;12.52;7.88;;;;;;;18.11;100.00;100978.75;6056037;23;20089;-70
2023/06/29 04:35:53;;;;;;;7.32;6.72;;;;;;;18.65;100.00;101062.13;6081774;23;20094;-71
2023/06/29 04:38:25;;;;;;;13.05;7.57;;;;;;;18.31;100.00;100999.22;6083643;23;20127;-70
2023/06/29 04:41:03;;;;;;;7.93;7.13;;;;;;;18.52;100.00;101033.88;6079531;23;20081;-71
2023/06/29 04:43:32;;;;;;;8.73;7.30;;;;;;;18.47;100.00;101006.81;6077754;23;20096;-71
2023/06/29 04:46:00;;;;;;;8.48;7.45;;;;;;;18.56;100.00;101021.16;6082723;23;20022;-70
2023/06/29 04:48:36;;;;;;;8.05;7.45;;;;;;;18.94;99.77;101054.47;6075317;23;20022;-70
2023/06/29 04:51:07;;;;;;;7.43;6.80;;;;;;;17.92;99.61;100879.28;6055906;23;20026;-73
2023/06/29 04:53:34;;;;;;;7.22;6.57;;;;;;;19.07;99.45;101047.19;6080299;23;20167;-71
2023/06/29 04:56:04;;;;;;;7.60;6.88;;;;;;;19.31;97.88;101051.44;6079650;23;20044;-70
2023/06/29 04:58:30;;;;;;;8.02;7.35;;;;;;;19.45;96.15;101045.81;6081423;23;20025;-71
2023/06/29 05:00:57;;;;;;;6.60;6.20;;;;;;;19.41;94.55;101015.09;6079823;23;20046;-71
2023/06/29 05:03:24;;;;;;;7.63;6.93;;;;;;;19.59;93.51;101015.34;6081659;23;20457;-70
2023/06/29 05:05:51;;;;;;;7.40;6.80;;;;;;;19.68;92.37;101025.19;6082834;23;20010;-71
2023/06/29 05:08:19;;;;;;;7.60;7.00;;;;;;;19.69;92.53;101036.72;6081570;23;20025;-71
2023/06/29 05:10:45;;;;;;;7.43;6.82;;;;;;;19.42;92.67;100994.63;6053585;23;20026;-71
2023/06/29 05:13:12;;;;;;;7.15;6.60;;;;;;;19.66;92.17;101043.13;6081658;23;20812;-71
2023/06/29 05:15:38;;;;;;;10.55;8.20;;;;;;;19.32;91.53;100978.59;6074426;23;20026;-71
2023/06/29 05:18:04;;;;;;;8.38;7.28;;;;;;;19.58;92.29;101028.78;6055450;23;20046;-70
2023/06/29 05:20:31;;;;;;;8.45;7.43;;;;;;;19.20;93.81;101000.94;6078330;23;20018;-70
2023/06/29 05:22:58;;;;;;;7.22;6.65;;;;;;;19.07;93.91;100983.34;6081222;23;20104;-70
2023/06/29 05:25:25;;;;;;;9.93;6.38;;;;;;;19.20;94.26;100990.28;6084102;23;20586;-71
2023/06/29 05:27:51;;;;;;;10.55;6.90;;;;;;;19.55;93.85;101029.91;6082364;23;20533;-71
2023/06/29 05:30:18;;;;;;;6.88;6.38;;;;;;;19.60;92.47;101024.19;6074848;23;20081;-71
2023/06/29 05:32:44;;;;;;;7.30;6.70;;;;;;;19.67;92.16;101012.03;6080503;23;20079;-70
2023/06/29 05:35:11;;;;;;;6.95;6.45;;;;;;;19.75;91.04;101009.59;6060243;23;20050;-70
2023/06/29 05:37:37;;;;;;;7.28;6.78;;;;;;;19.82;90.76;101008.06;6101101;23;20509;-72
2023/06/29 05:40:04;;;;;;;6.75;6.25;;;;;;;19.66;91.03;100987.22;6083041;23;20522;-70
2023/06/29 05:42:31;;;;;;;8.60;6.70;;;;;;;19.59;90.91;100966.59;6077592;23;20041;-70
2023/06/29 05:44:58;;;;;;;7.50;6.85;;;;;;;19.73;90.97;100992.91;6077526;23;20022;-70
2023/06/29 05:47:25;;;;;;;7.22;6.65;;;;;;;19.91;90.66;101030.41;6081279;23;20016;-70
2023/06/29 05:49:51;;;;;;;8.32;6.68;;;;;;;19.98;90.55;101023.56;6082501;23;20030;-70
2023/06/29 05:52:18;;;;;;;7.28;6.32;;;;;;;20.04;89.63;101020.38;6085549;23;20086;-70
2023/06/29 05:54:47;;;;;;;7.55;6.82;;;;;;;20.10;88.84;101013.66;6092919;23;20022;-71
2023/06/29 05:57:13;;;;;;;7.25;6.53;;;;;;;20.01;88.28;101006.50;6074916;23;20035;-70
2023/06/29 05:59:39;;;;;;;6.93;6.32;;;;;;;19.96;88.75;100990.88;6083718;23;20032;-70
2023/06/29 06:02:06;;;;;;;8.02;6.30;;;;;;;20.11;88.80;101016.19;6082594;23;20012;-70
2023/06/29 06:04:34;;;;;;;7.38;6.80;;;;;;;20.02;88.72;101014.31;6084992;23;20042;-69
2023/06/29 06:07:01;;;;;;;6.82;6.32;;;;;;;19.65;89.50;100963.41;6062533;23;20022;-70
2023/06/29 06:09:28;;;;;;;7.03;6.53;;;;;;;19.94;89.19;101011.50;6103752;23;20041;-70
2023/06/29 06:11:57;;;;;;;6.75;6.30;;;;;;;20.09;89.32;101023.47;6057686;23;20385;-70
2023/06/29 06:14:23;;;;;;;7.35;6.57;;;;;;;20.30;88.96;101023.41;6080346;23;20030;-70
2023/06/29 06:16:50;;;;;;;6.60;6.20;;;;;;;20.38;87.75;100995.25;6081308;23;20026;-71
2023/06/29 06:19:16;;;;;;;7.20;6.60;;;;;;;19.77;86.20;100866.50;6085515;23;20029;-70
2023/06/29 06:21:43;;;;;;;6.55;6.13;;;;;;;20.24;85.57;100937.84;6081760;23;20102;-71
2023/06/29 06:24:10;;;;;;;7.60;6.70;;;;;;;20.75;84.88;100995.50;6082783;23;20026;-69
2023/06/29 06:26:36;;;;;;;6.90;6.40;;;;;;;20.50;83.99;100930.16;6085932;23;20053;-70
2023/06/29 06:29:02;;;;;;;7.05;6.40;;;;;;;20.98;84.08;100996.03;6084512;23;20532;-70
2023/06/29 06:31:29;;;;;;;7.35;6.75;;;;;;;21.03;84.53;100990.31;6086286;23;20089;-70
2023/06/29 06:34:00;;;;;;;7.55;6.85;;;;;;;21.02;83.78;100968.09;6083650;23;20036;-70
2023/06/29 06:36:30;;;;;;;7.28;6.78;;;;;;;21.31;81.80;100983.25;6085770;23;20037;-71
2023/06/29 06:38:56;;;;;;;7.45;6.95;;;;;;;21.36;80.39;100961.47;6080328;23;20032;-69
2023/06/29 06:41:23;;;;;;;7.18;6.60;;;;;;;21.52;80.06;100961.72;6083391;23;20152;-69
2023/06/29 06:43:49;;;;;;;7.00;6.50;;;;;;;21.35;78.78;100912.56;6080515;23;20015;-69
2023/06/29 06:46:16;;;;;;;6.30;5.90;;;;;;;21.41;77.98;100903.09;6086907;23;20064;-70
2023/06/29 06:48:42;;;;;;;7.00;6.40;;;;;;;21.75;77.46;100940.00;6108305;23;20037;-69
2023/06/29 06:51:08;;;;;;;7.53;6.97;;;;;;;21.88;76.99;100945.84;6081693;23;20033;-69
2023/06/29 06:53:35;;;;;;;7.00;6.50;;;;;;;21.66;77.07;100890.97;6054309;23;20026;-70
2023/06/29 06:56:01;;;;;;;6.80;6.40;;;;;;;22.15;75.94;100934.31;6088162;23;20026;-69
2023/06/29 06:58:28;;;;;;;7.30;6.80;;;;;;;22.00;75.11;100919.78;6085226;23;20104;-70
2023/06/29 07:00:54;;;;;;;7.05;6.55;;;;;;;22.11;75.54;100932.94;6079200;23;20045;-72
2023/06/29 07:03:20;;;;;;;6.65;6.20;;;;;;;21.89;75.48;100894.09;6079531;23;20401;-69
2023/06/29 07:05:47;;;;;;;6.93;6.43;;;;;;;22.09;75.20;100913.50;6066418;23;20037;-69
2023/06/29 07:08:13;;;;;;;7.13;6.57;;;;;;;21.94;74.87;100874.94;6083991;23;20018;-70
2023/06/29 07:10:40;;;;;;;7.20;6.60;;;;;;;22.07;74.35;100880.75;6086691;23;20039;-69
2023/06/29 07:13:06;;;;;;;7.78;6.70;;;;;;;22.68;73.10;100914.81;6054047;23;20078;-71
2023/06/29 07:15:33;;;;;;;7.10;6.60;;;;;;;22.89;71.98;100903.81;6082976;23;20463;-70
2023/06/29 07:18:00;;;;;;;6.72;6.30;;;;;;;23.10;70.58;100898.13;6076396;23;20026;-70
2023/06/29 07:20:26;;;;;;;7.78;7.03;;;;;;;23.05;69.17;100849.56;6084875;23;20514;-71
2023/06/29 07:22:55;;;;;;;6.90;6.20;;;;;;;23.13;68.69;100815.81;6083643;23;20056;-70
2023/06/29 07:25:25;;;;;;;7.10;6.43;;;;;;;23.54;67.50;100834.75;6084250;23;20561;-70
2023/06/29 07:27:51;;;;;;;7.18;6.40;;;;;;;23.83;66.72;100858.50;6054608;23;20273;-70
2023/06/29 07:30:18;;;;;;;6.63;6.07;;;;;;;23.83;66.81;100843.25;6087544;23;20089;-70
2023/06/29 07:32:44;;;;;;;7.47;6.97;;;;;;;23.52;66.39;100791.22;6083239;23;20018;-71
2023/06/29 07:35:13;;;;;;;7.95;7.18;;;;;;;23.52;66.93;100821.53;6085187;23;20030;-70
2023/06/29 07:37:39;;;;;;;7.47;6.78;;;;;;;22.68;69.01;100773.03;6053400;23;20772;-70
2023/06/29 07:40:06;;;;;;;6.72;6.32;;;;;;;22.83;70.50;100847.38;6084029;23;20030;-70
2023/06/29 07:42:33;;;;;;;7.05;6.53;;;;;;;22.56;71.71;100834.97;6082979;23;20101;-70
2023/06/29 07:45:06;;;;;;;7.07;6.57;;;;;;;22.55;71.88;100825.25;6084281;23;20045;-70
2023/06/29 07:47:32;;;;;;;7.20;6.60;;;;;;;22.56;72.04;100819.75;6083649;23;20030;-70
2023/06/29 07:49:59;;;;;;;7.43;6.82;;;;;;;22.79;72.67;100867.41;6083346;23;20029;-69
2023/06/29 07:52:26;;;;;;;7.20;6.70;;;;;;;22.82;72.06;100865.25;6082684;23;20156;-69
2023/06/29 07:54:53;;;;;;;8.45;6.20;;;;;;;22.53;73.20;100832.59;6082223;23;20029;-69
2023/06/29 07:57:19;;;;;;;7.10;6.60;;;;;;;22.82;73.24;100870.63;6084171;23;20818;-69
2023/06/29 07:59:49;;;;;;;7.22;6.63;;;;;;;22.82;72.99;100872.47;6084409;23;20020;-69
2023/06/29 08:02:15;;;;;;;6.80;6.30;;;;;;;22.70;74.33;100874.53;6083867;23;20018;-69
2023/06/29 08:04:42;;;;;;;7.90;7.20;;;;;;;22.72;74.17;100875.22;6082938;23;20738;-70
2023/06/29 08:07:12;;;;;;;7.20;6.55;;;;;;;22.90;74.15;100875.19;6080940;23;20566;-70
2023/06/29 08:09:39;;;;;;;7.60;6.90;;;;;;;22.42;73.47;100750.78;6060464;23;20107;-69
2023/06/29 08:12:06;;;;;;;7.43;6.72;;;;;;;23.27;71.66;100839.31;6084556;23;20050;-69
2023/06/29 08:14:34;;;;;;;7.03;6.53;;;;;;;23.45;69.49;100817.78;6079429;23;20053;-70
2023/06/29 08:17:02;;;;;;;7.30;6.55;;;;;;;23.78;68.88;100850.94;6080456;23;20325;-71
2023/06/29 08:19:29;;;;;;;7.63;6.97;;;;;;;23.62;69.48;100850.88;6086641;23;20026;-70
2023/06/29 08:21:56;;;;;;;9.98;6.75;;;;;;;23.36;70.22;100824.13;6080790;23;20093;-70
2023/06/29 08:24:23;;;;;;;7.70;7.13;;;;;;;23.33;69.58;100835.97;6086895;23;20577;-70
2023/06/29 08:26:49;;;;;;;7.43;6.75;;;;;;;22.77;71.54;100798.03;6059536;23;20054;-70
2023/06/29 08:29:16;;;;;;;7.88;7.13;;;;;;;22.93;72.68;100858.81;6083149;23;20041;-70
2023/06/29 08:31:42;;;;;;;8.55;7.75;;;;;;;22.73;73.17;100855.47;6078190;23;20030;-70
2023/06/29 08:34:08;;;;;;;8.25;7.43;;;;;;;22.86;73.46;100881.84;6077500;23;20077;-70
2023/06/29 08:36:36;;;;;;;9.68;8.68;;;;;;;22.90;74.14;100885.91;6079228;23;20046;-69
2023/06/29 08:39:03;;;;;;;11.10;8.07;;;;;;;22.59;73.81;100874.78;6100892;23;20412;-70
2023/06/29 08:41:29;;;;;;;8.15;7.45;;;;;;;22.53;77.22;100902.97;6082010;23;20825;-70
2023/06/29 08:43:56;;;;;;;7.60;6.90;;;;;;;22.68;76.78;100890.75;6100476;23;20037;-70
2023/06/29 08:46:23;;;;;;;7.88;7.13;;;;;;;22.45;75.07;100804.81;6081012;23;20121;-69
2023/06/29 08:48:50;;;;;;;8.93;7.03;;;;;;;22.87;74.05;100830.88;6076478;23;21045;-71
2023/06/29 08:51:18;;;;;;;7.40;6.70;;;;;;;23.13;72.95;100838.06;6105609;23;20034;-70
2023/06/29 08:53:46;;;;;;;8.93;7.07;;;;;;;23.37;72.40;100869.47;6086525;23;20111;-70
2023/06/29 08:56:13;;;;;;;8.07;7.47;;;;;;;23.40;73.37;100885.25;6052565;23;20531;-71
2023/06/29 08:58:39;;;;;;;7.45;6.85;;;;;;;23.60;72.70;100885.00;6080269;23;20014;-71
2023/06/29 09:01:06;;;;;;;8.27;7.47;;;;;;;23.71;72.01;100876.66;6081126;23;20074;-69
2023/06/29 09:03:35;;;;;;;8.15;7.35;;;;;;;23.95;71.11;100869.75;6079864;23;20017;-71
2023/06/29 09:06:03;;;;;;;8.55;7.10;;;;;;;24.14;68.93;100856.06;6054148;23;20030;-70
2023/06/29 09:08:30;;;;;;;8.70;7.70;;;;;;;24.15;68.10;100841.63;6070047;23;20019;-71
2023/06/29 09:10:56;;;;;;;9.43;7.88;;;;;;;24.34;67.60;100828.94;6076720;23;20032;-70
2023/06/29 09:13:26;;;;;;;8.77;7.88;;;;;;;24.62;67.16;100829.47;6080210;23;20029;-72
2023/06/29 09:15:54;;;;;;;8.35;7.43;;;;;;;25.04;66.02;100826.53;6076456;23;20034;-70
2023/06/29 09:18:23;;;;;;;9.63;8.45;;;;;;;25.05;65.23;100811.25;6081477;23;20037;-70
2023/06/29 09:20:50;;;;;;;10.75;8.20;;;;;;;25.14;64.96;100806.69;6087042;23;20038;-70
2023/06/29 09:23:20;;;;;;;10.95;8.05;;;;;;;24.82;63.96;100762.84;6078049;23;20070;-70
2023/06/29 09:25:48;;;;;;;11.10;8.13;;;;;;;24.92;64.29;100774.22;6045240;23;20034;-70
2023/06/29 09:28:15;;;;;;;11.30;8.40;;;;;;;25.22;64.83;100785.25;6083602;23;20041;-71
2023/06/29 09:30:41;;;;;;;9.38;8.48;;;;;;;25.38;62.35;100744.88;6081271;23;20030;-71
2023/06/29 09:33:13;;;;;;;12.55;8.98;;;;;;;25.42;62.81;100735.44;6076908;23;20015;-71
2023/06/29 09:35:44;;;;;;;9.15;8.27;;;;;;;25.83;61.80;100753.97;6083674;23;20022;-71
2023/06/29 09:38:10;;;;;;;9.68;8.07;;;;;;;26.02;61.22;100730.34;6051580;23;20117;-69
2023/06/29 09:40:51;;;;;;;10.10;9.13;;;;;;;25.95;59.43;100675.63;6083124;23;20037;-71
2023/06/29 09:43:19;;;;;;;9.93;9.13;;;;;;;26.22;59.01;100663.41;6081386;23;20050;-70
2023/06/29 09:45:45;;;;;;;10.02;9.02;;;;;;;26.76;59.51;100724.28;6105713;23;20038;-70
2023/06/29 09:48:12;;;;;;;14.75;8.70;;;;;;;27.31;56.62;100676.31;6081803;23;20028;-70
2023/06/29 09:50:49;;;;;;;11.77;8.60;;;;;;;27.44;55.06;100623.41;6084332;23;20025;-70
2023/06/29 09:53:26;;;;;;;9.73;8.73;;;;;;;27.64;54.20;100628.13;6083226;23;20093;-70
2023/06/29 09:55:55;;;;;;;10.82;8.75;;;;;;;27.72;54.95;100649.53;6105970;23;20041;-71
2023/06/29 09:58:22;;;;;;;9.52;8.30;;;;;;;27.51;54.21;100592.97;6076386;23;20022;-71
2023/06/29 10:00:48;;;;;;;10.95;8.52;;;;;;;27.49;55.34;100643.53;6085846;23;20018;-73
2023/06/29 10:03:15;;;;;;;10.00;8.63;;;;;;;27.40;55.38;100597.00;6081409;23;20083;-73
2023/06/29 10:05:42;;;;;;;9.82;8.77;;;;;;;27.49;55.68;100621.97;6082436;23;20034;-71
2023/06/29 10:08:14;;;;;;;9.32;8.43;;;;;;;27.36;55.27;100622.66;6081716;23;20032;-70
2023/06/29 10:10:42;;;;;;;9.15;8.25;;;;;;;27.26;56.10;100620.28;6081704;23;20100;-71
2023/06/29 10:13:09;;;;;;;10.48;8.93;;;;;;;27.83;54.87;100640.13;6081043;23;20022;-71
2023/06/29 10:15:38;;;;;;;9.63;8.60;;;;;;;28.10;53.37;100584.50;6084966;23;20045;-70
2023/06/29 10:18:10;;;;;;;9.45;8.55;;;;;;;28.08;54.92;100637.00;6084002;23;20022;-70
2023/06/29 10:20:43;;;;;;;13.15;8.70;;;;;;;27.80;53.82;100556.88;6084544;23;20079;-72
2023/06/29 10:23:14;;;;;;;9.75;8.75;;;;;;;27.99;53.02;100561.63;6083656;23;20028;-69
2023/06/29 10:25:46;;;;;;;10.50;8.85;;;;;;;27.67;53.13;100519.06;6083504;23;20033;-69
2023/06/29 10:28:13;;;;;;;;;;;;;;;27.81;54.21;100583.66;6081484;23;20018;-70
2023/06/29 10:30:45;;;;;;;10.10;8.77;;;;;;;27.52;54.21;100519.16;6082775;23;19930;-70
2023/06/29 10:33:12;;;;;;;12.30;9.35;;;;;;;27.23;54.87;100554.16;6053455;23;20025;-70
2023/06/29 10:35:39;;;;;;;8.98;8.18;;;;;;;26.82;57.09;100614.00;6054417;23;20034;-69
2023/06/29 10:38:13;;;;;;;9.73;8.77;;;;;;;27.75;57.16;100664.53;6083769;23;20432;-69
2023/06/29 10:40:48;;;;;;;14.15;9.27;;;;;;;26.78;56.69;100587.63;6082566;23;20101;-70
2023/06/29 10:43:15;;;;;;;11.60;9.50;;;;;;;27.31;56.72;100631.34;6079165;23;20448;-69
2023/06/29 10:45:41;;;;;;;10.15;8.80;;;;;;;27.29;56.82;100611.84;6082912;23;20038;-71
2023/06/29 10:48:10;;;;;;;8.88;7.95;;;;;;;26.86;57.51;100587.50;6079322;23;20025;-69
2023/06/29 10:50:41;;;;;;;9.33;8.23;;;;;;;27.16;57.81;100646.69;6084406;23;20485;-68
2023/06/29 10:53:11;;;;;;;11.30;8.98;;;;;;;27.17;57.49;100595.31;6082246;23;20010;-69
2023/06/29 10:55:46;;;;;;;9.43;8.45;;;;;;;27.93;55.52;100631.72;6082722;23;20429;-70
2023/06/29 10:58:15;;;;;;;9.45;8.50;;;;;;;27.90;55.27;100605.94;6102654;23;20026;-71
2023/06/29 11:00:41;;;;;;;10.95;8.52;;;;;;;28.08;54.01;100588.44;6081899;23;20562;-69
2023/06/29 11:03:10;;;;;;;9.13;8.13;;;;;;;27.76;54.27;100552.91;6082270;23;20028;-69
2023/06/29 11:05:39;;;;;;;9.43;8.38;;;;;;;27.96;54.19;100575.50;6075291;23;20026;-69
2023/06/29 11:08:07;;;;;;;8.77;7.88;;;;;;;27.56;54.51;100542.81;6057327;23;20033;-70
2023/06/29 11:10:34;;;;;;;9.77;7.70;;;;;;;27.05;54.16;100503.38;6078513;23;20030;-70
2023/06/29 11:13:07;;;;;;;14.90;8.48;;;;;;;26.69;53.46;100471.13;6080438;23;20030;-70
2023/06/29 11:15:34;;;;;;;8.40;7.70;;;;;;;26.21;56.22;100546.91;6080191;23;20572;-70
2023/06/29 11:18:06;;;;;;;9.88;8.43;;;;;;;26.12;57.86;100593.78;6081398;23;20114;-70
2023/06/29 11:20:39;;;;;;;9.77;8.80;;;;;;;25.95;58.34;100568.91;6085131;23;20018;-71
2023/06/29 11:23:08;;;;;;;9.65;8.75;;;;;;;26.40;58.01;100628.09;6083790;23;20080;-73
2023/06/29 11:25:36;;;;;;;8.95;8.25;;;;;;;26.52;57.56;100607.78;6084530;23;20044;-70
2023/06/29 11:28:03;;;;;;;9.52;8.07;;;;;;;26.08;58.68;100579.03;6074977;23;20014;-70
2023/06/29 11:30:30;;;;;;;10.95;8.48;;;;;;;25.94;58.02;100542.19;6104106;23;20029;-71
2023/06/29 11:32:56;;;;;;;8.80;7.90;;;;;;;26.04;58.76;100607.28;6082431;23;20182;-71